sensor_id;sensor_type;location;lat;lon;timestamp;temperature;humidity
38239;DHT22;24035;48.900;9.188;2023-07-31T00:00:12;16.40;99.90
38239;DHT22;24035;48.900;9.188;2023-07-31T00:02:39;16.40;99.90
38239;DHT22;24035;48.900;9.188;2023-07-31T00:05:05;16.20;99.90
38239;DHT22;24035;48.900;9.188;2023-07-31T00:07:32;16.20;99.90
38239;DHT22;24035;48.900;9.188;2023-07-31T00:09:58;16.10;99.90
38239;DHT22;24035;48.900;9.188;2023-07-31T00:12:24;16.10;99.90
38239;DHT22;24035;48.900;9.188;2023-07-31T00:14:49;16.00;99.90
38239;DHT22;24035;48.900;9.188;2023-07-31T00:17:17;16.00;1.00
38239;DHT22;24035;48.900;9.188;2023-07-31T00:19:43;15.90;1.00
38239;DHT22;24035;48.900;9.188;2023-07-31T00:22:09;15.80;1.00
38239;DHT22;24035;48.900;9.188;2023-07-31T00:24:34;15.70;1.00
38239;DHT22;24035;48.900;9.188;2023-07-31T00:27:00;15.60;1.00
38239;DHT22;24035;48.900;9.188;2023-07-31T00:29:26;15.60;1.00
38239;DHT22;24035;48.900;9.188;2023-07-31T00:31:51;15.70;1.00
38239;DHT22;24035;48.900;9.188;2023-07-31T00:34:17;15.70;1.00
38239;DHT22;24035;48.900;9.188;2023-07-31T00:36:43;15.80;1.00
38239;DHT22;24035;48.900;9.188;2023-07-31T00:39:08;15.80;1.00
38239;DHT22;24035;48.900;9.188;2023-07-31T00:41:34;15.80;1.00
38239;DHT22;24035;48.900;9.188;2023-07-31T00:44:00;15.80;1.00
38239;DHT22;24035;48.900;9.188;2023-07-31T00:46:26;15.70;1.00
38239;DHT22;24035;48.900;9.188;2023-07-31T00:48:52;15.60;1.00
38239;DHT22;24035;48.900;9.188;2023-07-31T00:51:18;15.60;1.00
38239;DHT22;24035;48.900;9.188;2023-07-31T00:53:43;15.50;1.00
38239;DHT22;24035;48.900;9.188;2023-07-31T00:56:11;15.50;1.00
38239;DHT22;24035;48.900;9.188;2023-07-31T00:58:37;15.40;1.00
38239;DHT22;24035;48.900;9.188;2023-07-31T01:01:03;15.30;1.00
38239;DHT22;24035;48.900;9.188;2023-07-31T01:03:28;15.20;1.00
38239;DHT22;24035;48.900;9.188;2023-07-31T01:06:02;15.10;83.90
38239;DHT22;24035;48.900;9.188;2023-07-31T01:08:49;15.10;99.90
38239;DHT22;24035;48.900;9.188;2023-07-31T01:11:27;15.10;99.90
38239;DHT22;24035;48.900;9.188;2023-07-31T01:13:55;15.00;99.90
38239;DHT22;24035;48.900;9.188;2023-07-31T01:16:21;15.10;99.90
38239;DHT22;24035;48.900;9.188;2023-07-31T01:18:46;15.00;99.90
38239;DHT22;24035;48.900;9.188;2023-07-31T01:26:34;15.00;99.90
38239;DHT22;24035;48.900;9.188;2023-07-31T01:29:14;15.10;99.90
38239;DHT22;24035;48.900;9.188;2023-07-31T01:31:42;15.20;91.80
38239;DHT22;24035;48.900;9.188;2023-07-31T01:34:12;15.30;50.80
38239;DHT22;24035;48.900;9.188;2023-07-31T01:36:39;15.40;1.00
38239;DHT22;24035;48.900;9.188;2023-07-31T01:39:05;15.50;1.00
38239;DHT22;24035;48.900;9.188;2023-07-31T01:41:30;15.40;1.00
38239;DHT22;24035;48.900;9.188;2023-07-31T01:43:56;15.40;1.00
38239;DHT22;24035;48.900;9.188;2023-07-31T01:46:22;15.30;1.00
38239;DHT22;24035;48.900;9.188;2023-07-31T01:48:48;15.30;6.30
38239;DHT22;24035;48.900;9.188;2023-07-31T01:51:13;15.30;1.00
38239;DHT22;24035;48.900;9.188;2023-07-31T01:53:39;15.30;1.00
38239;DHT22;24035;48.900;9.188;2023-07-31T01:56:05;15.20;68.00
38239;DHT22;24035;48.900;9.188;2023-07-31T01:58:31;15.10;99.90
38239;DHT22;24035;48.900;9.188;2023-07-31T02:00:56;15.00;99.90
38239;DHT22;24035;48.900;9.188;2023-07-31T02:03:22;15.00;99.90
38239;DHT22;24035;48.900;9.188;2023-07-31T02:05:49;15.00;99.90
38239;DHT22;24035;48.900;9.188;2023-07-31T02:08:15;14.90;99.90
38239;DHT22;24035;48.900;9.188;2023-07-31T02:10:41;15.00;99.90
38239;DHT22;24035;48.900;9.188;2023-07-31T02:13:07;15.00;99.90
38239;DHT22;24035;48.900;9.188;2023-07-31T02:15:34;15.00;99.90
38239;DHT22;24035;48.900;9.188;2023-07-31T02:17:59;15.10;99.90
38239;DHT22;24035;48.900;9.188;2023-07-31T02:20:25;15.10;95.50
38239;DHT22;24035;48.900;9.188;2023-07-31T02:22:51;15.10;40.90
38239;DHT22;24035;48.900;9.188;2023-07-31T02:25:17;15.20;53.30
38239;DHT22;24035;48.900;9.188;2023-07-31T02:27:43;15.10;75.90
38239;DHT22;24035;48.900;9.188;2023-07-31T02:30:09;15.10;88.30
38239;DHT22;24035;48.900;9.188;2023-07-31T02:32:35;15.10;99.90
38239;DHT22;24035;48.900;9.188;2023-07-31T02:35:00;15.10;99.90
38239;DHT22;24035;48.900;9.188;2023-07-31T02:37:26;15.00;99.90
38239;DHT22;24035;48.900;9.188;2023-07-31T02:39:54;15.10;99.90
38239;DHT22;24035;48.900;9.188;2023-07-31T02:42:19;15.20;82.70
38239;DHT22;24035;48.900;9.188;2023-07-31T02:44:45;15.20;89.90
38239;DHT22;24035;48.900;9.188;2023-07-31T02:47:11;15.30;1.00
38239;DHT22;24035;48.900;9.188;2023-07-31T02:49:36;15.40;1.00
38239;DHT22;24035;48.900;9.188;2023-07-31T02:52:02;15.40;1.00
38239;DHT22;24035;48.900;9.188;2023-07-31T02:54:28;15.50;1.00
38239;DHT22;24035;48.900;9.188;2023-07-31T02:56:54;15.50;1.00
38239;DHT22;24035;48.900;9.188;2023-07-31T02:59:20;15.50;1.00
38239;DHT22;24035;48.900;9.188;2023-07-31T03:01:46;15.40;1.00
38239;DHT22;24035;48.900;9.188;2023-07-31T03:04:11;15.40;1.00
38239;DHT22;24035;48.900;9.188;2023-07-31T03:06:37;15.30;1.00
38239;DHT22;24035;48.900;9.188;2023-07-31T03:09:03;15.30;1.00
38239;DHT22;24035;48.900;9.188;2023-07-31T03:11:29;15.20;1.00
38239;DHT22;24035;48.900;9.188;2023-07-31T03:13:54;15.20;42.00
38239;DHT22;24035;48.900;9.188;2023-07-31T03:16:20;15.20;99.90
38239;DHT22;24035;48.900;9.188;2023-07-31T03:18:46;15.10;99.90
38239;DHT22;24035;48.900;9.188;2023-07-31T03:21:12;15.10;99.90
38239;DHT22;24035;48.900;9.188;2023-07-31T03:23:38;15.10;99.90
38239;DHT22;24035;48.900;9.188;2023-07-31T03:26:07;15.10;99.90
38239;DHT22;24035;48.900;9.188;2023-07-31T03:28:33;15.00;99.90
38239;DHT22;24035;48.900;9.188;2023-07-31T03:30:59;15.00;99.90
38239;DHT22;24035;48.900;9.188;2023-07-31T03:33:25;15.10;99.90
38239;DHT22;24035;48.900;9.188;2023-07-31T03:35:51;15.10;99.90
38239;DHT22;24035;48.900;9.188;2023-07-31T03:38:18;15.10;99.90
38239;DHT22;24035;48.900;9.188;2023-07-31T03:40:43;15.00;99.90
38239;DHT22;24035;48.900;9.188;2023-07-31T03:43:09;14.90;99.90
38239;DHT22;24035;48.900;9.188;2023-07-31T03:45:35;14.90;99.90
38239;DHT22;24035;48.900;9.188;2023-07-31T03:48:01;14.90;1.00
38239;DHT22;24035;48.900;9.188;2023-07-31T03:50:26;14.80;99.90
38239;DHT22;24035;48.900;9.188;2023-07-31T03:52:52;14.80;1.00
38239;DHT22;24035;48.900;9.188;2023-07-31T03:55:18;14.80;1.00
38239;DHT22;24035;48.900;9.188;2023-07-31T03:57:44;14.80;1.00
38239;DHT22;24035;48.900;9.188;2023-07-31T04:00:10;14.80;99.90
38239;DHT22;24035;48.900;9.188;2023-07-31T04:02:36;14.80;99.90
38239;DHT22;24035;48.900;9.188;2023-07-31T04:05:02;14.90;99.90
38239;DHT22;24035;48.900;9.188;2023-07-31T04:07:27;15.00;99.90
38239;DHT22;24035;48.900;9.188;2023-07-31T04:09:53;15.00;99.90
38239;DHT22;24035;48.900;9.188;2023-07-31T04:12:19;15.10;81.10
38239;DHT22;24035;48.900;9.188;2023-07-31T04:14:45;15.20;1.00
38239;DHT22;24035;48.900;9.188;2023-07-31T04:17:10;15.30;1.00
38239;DHT22;24035;48.900;9.188;2023-07-31T04:19:36;15.60;1.00
38239;DHT22;24035;48.900;9.188;2023-07-31T04:22:02;16.10;1.00
38239;DHT22;24035;48.900;9.188;2023-07-31T04:24:27;16.30;99.90
38239;DHT22;24035;48.900;9.188;2023-07-31T04:26:53;16.40;99.90
38239;DHT22;24035;48.900;9.188;2023-07-31T04:29:20;16.40;99.90
38239;DHT22;24035;48.900;9.188;2023-07-31T04:31:45;16.40;99.90
38239;DHT22;24035;48.900;9.188;2023-07-31T04:34:11;16.40;99.90
38239;DHT22;24035;48.900;9.188;2023-07-31T04:36:37;16.40;99.90
38239;DHT22;24035;48.900;9.188;2023-07-31T04:39:03;16.40;99.90
38239;DHT22;24035;48.900;9.188;2023-07-31T04:41:29;16.50;99.90
38239;DHT22;24035;48.900;9.188;2023-07-31T04:43:55;16.80;99.90
38239;DHT22;24035;48.900;9.188;2023-07-31T04:46:21;17.10;99.90
38239;DHT22;24035;48.900;9.188;2023-07-31T04:48:46;17.20;42.70
38239;DHT22;24035;48.900;9.188;2023-07-31T04:51:12;17.30;1.00
38239;DHT22;24035;48.900;9.188;2023-07-31T04:53:38;17.50;1.00
38239;DHT22;24035;48.900;9.188;2023-07-31T04:56:04;17.40;1.00
38239;DHT22;24035;48.900;9.188;2023-07-31T04:58:29;17.30;1.00
38239;DHT22;24035;48.900;9.188;2023-07-31T05:00:55;17.40;1.00
38239;DHT22;24035;48.900;9.188;2023-07-31T05:03:21;17.50;1.00
38239;DHT22;24035;48.900;9.188;2023-07-31T05:05:47;17.50;1.00
38239;DHT22;24035;48.900;9.188;2023-07-31T05:08:13;17.60;1.00
38239;DHT22;24035;48.900;9.188;2023-07-31T05:10:39;17.80;1.00
38239;DHT22;24035;48.900;9.188;2023-07-31T05:13:05;17.90;1.00
38239;DHT22;24035;48.900;9.188;2023-07-31T05:15:30;17.90;1.00
38239;DHT22;24035;48.900;9.188;2023-07-31T05:17:56;17.80;1.00
38239;DHT22;24035;48.900;9.188;2023-07-31T05:20:22;17.90;1.00
38239;DHT22;24035;48.900;9.188;2023-07-31T05:22:48;18.10;1.00
38239;DHT22;24035;48.900;9.188;2023-07-31T05:25:13;18.30;1.00
38239;DHT22;24035;48.900;9.188;2023-07-31T05:27:39;18.60;1.00
38239;DHT22;24035;48.900;9.188;2023-07-31T05:30:05;19.00;1.00
38239;DHT22;24035;48.900;9.188;2023-07-31T05:32:31;19.50;1.00
38239;DHT22;24035;48.900;9.188;2023-07-31T05:34:57;20.00;99.90
38239;DHT22;24035;48.900;9.188;2023-07-31T05:37:24;20.30;99.90
38239;DHT22;24035;48.900;9.188;2023-07-31T05:39:49;20.70;99.90
38239;DHT22;24035;48.900;9.188;2023-07-31T05:42:16;20.90;99.90
38239;DHT22;24035;48.900;9.188;2023-07-31T05:44:41;20.70;99.90
38239;DHT22;24035;48.900;9.188;2023-07-31T05:47:07;20.50;99.90
38239;DHT22;24035;48.900;9.188;2023-07-31T05:49:33;20.20;99.90
38239;DHT22;24035;48.900;9.188;2023-07-31T05:51:59;19.90;99.90
38239;DHT22;24035;48.900;9.188;2023-07-31T05:54:25;19.70;99.90
38239;DHT22;24035;48.900;9.188;2023-07-31T05:56:50;19.50;99.90
38239;DHT22;24035;48.900;9.188;2023-07-31T05:59:16;19.50;99.90
38239;DHT22;24035;48.900;9.188;2023-07-31T06:01:42;19.40;99.90
38239;DHT22;24035;48.900;9.188;2023-07-31T06:04:08;19.40;99.90
38239;DHT22;24035;48.900;9.188;2023-07-31T06:06:34;19.40;99.90
38239;DHT22;24035;48.900;9.188;2023-07-31T06:09:00;19.60;99.90
38239;DHT22;24035;48.900;9.188;2023-07-31T06:11:26;19.60;99.90
38239;DHT22;24035;48.900;9.188;2023-07-31T06:13:51;19.70;99.90
38239;DHT22;24035;48.900;9.188;2023-07-31T06:16:17;19.80;99.90
38239;DHT22;24035;48.900;9.188;2023-07-31T06:18:43;19.90;99.90
38239;DHT22;24035;48.900;9.188;2023-07-31T06:21:09;20.40;99.90
38239;DHT22;24035;48.900;9.188;2023-07-31T06:23:36;21.10;99.90
38239;DHT22;24035;48.900;9.188;2023-07-31T06:26:02;22.60;99.90
38239;DHT22;24035;48.900;9.188;2023-07-31T06:28:31;23.10;99.90
38239;DHT22;24035;48.900;9.188;2023-07-31T06:30:58;23.20;99.90
38239;DHT22;24035;48.900;9.188;2023-07-31T06:33:24;23.20;99.90
38239;DHT22;24035;48.900;9.188;2023-07-31T06:35:50;23.20;99.90
38239;DHT22;24035;48.900;9.188;2023-07-31T06:38:22;23.20;99.90
38239;DHT22;24035;48.900;9.188;2023-07-31T06:40:48;23.80;99.90
38239;DHT22;24035;48.900;9.188;2023-07-31T06:43:14;24.20;99.90
38239;DHT22;24035;48.900;9.188;2023-07-31T06:45:40;24.30;97.50
38239;DHT22;24035;48.900;9.188;2023-07-31T06:48:05;23.40;95.80
38239;DHT22;24035;48.900;9.188;2023-07-31T06:50:31;22.60;99.90
38239;DHT22;24035;48.900;9.188;2023-07-31T06:52:57;22.10;99.90
38239;DHT22;24035;48.900;9.188;2023-07-31T06:55:24;22.00;99.90
38239;DHT22;24035;48.900;9.188;2023-07-31T06:57:53;22.10;99.90
38239;DHT22;24035;48.900;9.188;2023-07-31T07:00:20;22.70;99.90
38239;DHT22;24035;48.900;9.188;2023-07-31T07:02:46;24.20;99.90
38239;DHT22;24035;48.900;9.188;2023-07-31T07:05:16;25.70;94.90
38239;DHT22;24035;48.900;9.188;2023-07-31T07:07:42;25.80;79.50
38239;DHT22;24035;48.900;9.188;2023-07-31T07:10:08;25.60;78.40
38239;DHT22;24035;48.900;9.188;2023-07-31T07:12:34;25.40;72.10
38239;DHT22;24035;48.900;9.188;2023-07-31T07:15:00;25.00;74.40
38239;DHT22;24035;48.900;9.188;2023-07-31T07:17:29;24.20;73.60
38239;DHT22;24035;48.900;9.188;2023-07-31T07:19:59;23.80;77.00
38239;DHT22;24035;48.900;9.188;2023-07-31T07:22:25;23.90;73.50
38239;DHT22;24035;48.900;9.188;2023-07-31T07:24:52;23.80;76.10
38239;DHT22;24035;48.900;9.188;2023-07-31T07:27:18;23.80;75.90
38239;DHT22;24035;48.900;9.188;2023-07-31T07:29:46;23.70;97.40
38239;DHT22;24035;48.900;9.188;2023-07-31T07:32:12;24.00;84.30
38239;DHT22;24035;48.900;9.188;2023-07-31T07:34:37;23.70;86.40
38239;DHT22;24035;48.900;9.188;2023-07-31T07:37:04;23.50;80.90
38239;DHT22;24035;48.900;9.188;2023-07-31T07:39:29;23.60;82.00
38239;DHT22;24035;48.900;9.188;2023-07-31T07:41:55;24.10;81.70
38239;DHT22;24035;48.900;9.188;2023-07-31T07:44:21;24.90;75.10
38239;DHT22;24035;48.900;9.188;2023-07-31T07:46:46;25.00;68.00
38239;DHT22;24035;48.900;9.188;2023-07-31T07:49:12;25.50;68.80
38239;DHT22;24035;48.900;9.188;2023-07-31T07:51:38;25.70;67.10
38239;DHT22;24035;48.900;9.188;2023-07-31T07:54:04;26.30;61.30
38239;DHT22;24035;48.900;9.188;2023-07-31T07:56:30;26.30;61.00
38239;DHT22;24035;48.900;9.188;2023-07-31T07:58:55;26.90;59.80
38239;DHT22;24035;48.900;9.188;2023-07-31T08:01:21;27.40;50.50
38239;DHT22;24035;48.900;9.188;2023-07-31T08:03:47;27.90;50.90
38239;DHT22;24035;48.900;9.188;2023-07-31T08:06:13;27.10;41.60
38239;DHT22;24035;48.900;9.188;2023-07-31T08:08:39;27.30;46.50
38239;DHT22;24035;48.900;9.188;2023-07-31T08:11:05;27.90;41.90
38239;DHT22;24035;48.900;9.188;2023-07-31T08:13:31;27.90;41.70
38239;DHT22;24035;48.900;9.188;2023-07-31T08:15:57;28.00;38.30
38239;DHT22;24035;48.900;9.188;2023-07-31T08:18:22;28.50;36.50
38239;DHT22;24035;48.900;9.188;2023-07-31T08:20:48;28.20;32.20
38239;DHT22;24035;48.900;9.188;2023-07-31T08:23:14;28.20;30.70
38239;DHT22;24035;48.900;9.188;2023-07-31T08:25:40;28.10;29.80
38239;DHT22;24035;48.900;9.188;2023-07-31T08:28:06;27.80;29.40
38239;DHT22;24035;48.900;9.188;2023-07-31T08:30:32;27.40;27.80
38239;DHT22;24035;48.900;9.188;2023-07-31T08:33:02;27.20;25.50
38239;DHT22;24035;48.900;9.188;2023-07-31T08:35:28;27.10;32.30
38239;DHT22;24035;48.900;9.188;2023-07-31T08:37:54;27.20;27.70
38239;DHT22;24035;48.900;9.188;2023-07-31T08:40:20;26.40;27.20
38239;DHT22;24035;48.900;9.188;2023-07-31T08:42:50;26.10;29.50
38239;DHT22;24035;48.900;9.188;2023-07-31T08:45:19;25.80;25.90
38239;DHT22;24035;48.900;9.188;2023-07-31T08:47:47;25.30;38.80
38239;DHT22;24035;48.900;9.188;2023-07-31T08:50:14;25.50;32.60
38239;DHT22;24035;48.900;9.188;2023-07-31T08:52:40;25.70;29.40
38239;DHT22;24035;48.900;9.188;2023-07-31T08:55:07;25.50;30.70
38239;DHT22;24035;48.900;9.188;2023-07-31T08:57:35;25.60;29.40
38239;DHT22;24035;48.900;9.188;2023-07-31T09:00:03;25.60;31.60
38239;DHT22;24035;48.900;9.188;2023-07-31T09:02:38;25.50;29.70
38239;DHT22;24035;48.900;9.188;2023-07-31T09:05:07;25.30;31.20
38239;DHT22;24035;48.900;9.188;2023-07-31T09:07:37;25.40;30.70
38239;DHT22;24035;48.900;9.188;2023-07-31T09:10:04;25.10;30.60
38239;DHT22;24035;48.900;9.188;2023-07-31T09:12:30;25.00;34.60
38239;DHT22;24035;48.900;9.188;2023-07-31T09:15:00;24.90;34.60
38239;DHT22;24035;48.900;9.188;2023-07-31T09:17:44;24.60;29.30
38239;DHT22;24035;48.900;9.188;2023-07-31T09:20:18;24.00;34.10
38239;DHT22;24035;48.900;9.188;2023-07-31T09:22:44;23.70;39.90
38239;DHT22;24035;48.900;9.188;2023-07-31T09:25:17;23.60;45.40
38239;DHT22;24035;48.900;9.188;2023-07-31T09:30:15;23.90;37.30
38239;DHT22;24035;48.900;9.188;2023-07-31T09:32:43;24.10;43.50
38239;DHT22;24035;48.900;9.188;2023-07-31T09:35:14;24.30;51.20
38239;DHT22;24035;48.900;9.188;2023-07-31T09:37:43;24.60;41.70
38239;DHT22;24035;48.900;9.188;2023-07-31T09:40:09;24.90;45.40
38239;DHT22;24035;48.900;9.188;2023-07-31T09:42:50;25.10;39.60
38239;DHT22;24035;48.900;9.188;2023-07-31T09:45:15;25.00;37.60
38239;DHT22;24035;48.900;9.188;2023-07-31T09:47:47;25.60;46.90
38239;DHT22;24035;48.900;9.188;2023-07-31T09:50:14;26.10;34.50
38239;DHT22;24035;48.900;9.188;2023-07-31T09:52:41;26.20;33.60
38239;DHT22;24035;48.900;9.188;2023-07-31T09:55:08;26.60;40.20
38239;DHT22;24035;48.900;9.188;2023-07-31T09:57:40;27.00;35.00
38239;DHT22;24035;48.900;9.188;2023-07-31T10:00:07;27.10;31.00
38239;DHT22;24035;48.900;9.188;2023-07-31T10:02:36;27.00;29.60
38239;DHT22;24035;48.900;9.188;2023-07-31T10:05:04;26.90;28.40
38239;DHT22;24035;48.900;9.188;2023-07-31T10:07:31;26.90;29.20
38239;DHT22;24035;48.900;9.188;2023-07-31T10:10:00;26.90;28.50
38239;DHT22;24035;48.900;9.188;2023-07-31T10:12:27;27.20;27.10
38239;DHT22;24035;48.900;9.188;2023-07-31T10:14:56;27.30;28.60
38239;DHT22;24035;48.900;9.188;2023-07-31T10:17:25;27.10;24.60
38239;DHT22;24035;48.900;9.188;2023-07-31T10:19:51;26.80;23.30
38239;DHT22;24035;48.900;9.188;2023-07-31T10:22:20;26.40;18.50
38239;DHT22;24035;48.900;9.188;2023-07-31T10:24:46;26.00;20.00
38239;DHT22;24035;48.900;9.188;2023-07-31T10:27:12;25.60;20.30
38239;DHT22;24035;48.900;9.188;2023-07-31T10:29:39;25.30;16.30
38239;DHT22;24035;48.900;9.188;2023-07-31T10:32:07;25.40;18.40
38239;DHT22;24035;48.900;9.188;2023-07-31T10:34:37;25.80;21.90
38239;DHT22;24035;48.900;9.188;2023-07-31T10:37:40;25.70;23.40
38239;DHT22;24035;48.900;9.188;2023-07-31T10:40:17;26.00;24.40
38239;DHT22;24035;48.900;9.188;2023-07-31T10:42:52;25.60;19.90
38239;DHT22;24035;48.900;9.188;2023-07-31T10:45:35;25.30;23.20
38239;DHT22;24035;48.900;9.188;2023-07-31T10:48:07;25.00;26.10
38239;DHT22;24035;48.900;9.188;2023-07-31T10:50:38;25.00;26.30
38239;DHT22;24035;48.900;9.188;2023-07-31T10:53:29;25.00;26.50
38239;DHT22;24035;48.900;9.188;2023-07-31T10:56:08;25.00;24.10
38239;DHT22;24035;48.900;9.188;2023-07-31T10:58:36;25.10;28.40
38239;DHT22;24035;48.900;9.188;2023-07-31T11:01:05;25.40;33.20
38239;DHT22;24035;48.900;9.188;2023-07-31T11:03:42;25.50;26.10
38239;DHT22;24035;48.900;9.188;2023-07-31T11:06:08;25.70;24.60
38239;DHT22;24035;48.900;9.188;2023-07-31T11:08:36;25.80;26.00
38239;DHT22;24035;48.900;9.188;2023-07-31T11:11:08;25.90;27.00
38239;DHT22;24035;48.900;9.188;2023-07-31T11:13:45;25.90;22.00
38239;DHT22;24035;48.900;9.188;2023-07-31T11:16:12;25.80;23.50
38239;DHT22;24035;48.900;9.188;2023-07-31T11:18:40;26.00;24.50
38239;DHT22;24035;48.900;9.188;2023-07-31T11:21:07;26.00;20.00
38239;DHT22;24035;48.900;9.188;2023-07-31T11:23:33;25.80;19.60
38239;DHT22;24035;48.900;9.188;2023-07-31T11:26:01;25.00;18.10
38239;DHT22;24035;48.900;9.188;2023-07-31T11:28:32;25.10;19.80
38239;DHT22;24035;48.900;9.188;2023-07-31T11:31:02;25.00;22.40
38239;DHT22;24035;48.900;9.188;2023-07-31T11:33:28;25.40;24.10
38239;DHT22;24035;48.900;9.188;2023-07-31T11:35:54;25.90;22.80
38239;DHT22;24035;48.900;9.188;2023-07-31T11:40:53;25.80;19.40
38239;DHT22;24035;48.900;9.188;2023-07-31T11:43:19;25.80;15.40
38239;DHT22;24035;48.900;9.188;2023-07-31T11:45:54;25.70;22.30
38239;DHT22;24035;48.900;9.188;2023-07-31T11:48:25;25.70;20.40
38239;DHT22;24035;48.900;9.188;2023-07-31T11:50:54;25.60;19.20
38239;DHT22;24035;48.900;9.188;2023-07-31T11:53:35;25.40;23.00
38239;DHT22;24035;48.900;9.188;2023-07-31T11:56:03;25.80;25.40
38239;DHT22;24035;48.900;9.188;2023-07-31T11:58:34;26.20;16.60
38239;DHT22;24035;48.900;9.188;2023-07-31T12:01:01;26.10;18.50
38239;DHT22;24035;48.900;9.188;2023-07-31T12:03:27;26.20;19.20
38239;DHT22;24035;48.900;9.188;2023-07-31T12:05:53;26.50;24.40
38239;DHT22;24035;48.900;9.188;2023-07-31T12:08:22;26.90;19.40
38239;DHT22;24035;48.900;9.188;2023-07-31T12:10:50;27.30;26.80
38239;DHT22;24035;48.900;9.188;2023-07-31T12:13:22;27.70;18.80
38239;DHT22;24035;48.900;9.188;2023-07-31T12:15:49;27.60;19.90
38239;DHT22;24035;48.900;9.188;2023-07-31T12:18:22;27.50;16.70
38239;DHT22;24035;48.900;9.188;2023-07-31T12:20:53;27.30;14.90
38239;DHT22;24035;48.900;9.188;2023-07-31T12:23:22;27.10;14.90
38239;DHT22;24035;48.900;9.188;2023-07-31T12:28:47;26.80;17.40
38239;DHT22;24035;48.900;9.188;2023-07-31T12:31:18;26.80;21.80
38239;DHT22;24035;48.900;9.188;2023-07-31T12:33:46;27.40;16.70
38239;DHT22;24035;48.900;9.188;2023-07-31T12:36:16;27.80;16.90
38239;DHT22;24035;48.900;9.188;2023-07-31T12:38:42;28.10;13.20
38239;DHT22;24035;48.900;9.188;2023-07-31T12:41:08;28.00;12.80
38239;DHT22;24035;48.900;9.188;2023-07-31T12:43:39;28.00;16.50
38239;DHT22;24035;48.900;9.188;2023-07-31T12:46:06;27.30;7.70
38239;DHT22;24035;48.900;9.188;2023-07-31T12:48:36;27.20;16.00
38239;DHT22;24035;48.900;9.188;2023-07-31T12:51:02;27.20;13.90
38239;DHT22;24035;48.900;9.188;2023-07-31T12:53:28;27.20;14.20
38239;DHT22;24035;48.900;9.188;2023-07-31T12:55:55;27.00;10.30
38239;DHT22;24035;48.900;9.188;2023-07-31T12:58:21;26.80;16.40
38239;DHT22;24035;48.900;9.188;2023-07-31T13:00:47;26.40;10.00
38239;DHT22;24035;48.900;9.188;2023-07-31T13:03:13;26.50;14.80
38239;DHT22;24035;48.900;9.188;2023-07-31T13:05:39;26.70;8.40
38239;DHT22;24035;48.900;9.188;2023-07-31T13:08:05;26.60;8.80
38239;DHT22;24035;48.900;9.188;2023-07-31T13:10:30;26.70;8.20
38239;DHT22;24035;48.900;9.188;2023-07-31T13:12:56;26.90;7.80
38239;DHT22;24035;48.900;9.188;2023-07-31T13:15:22;26.90;8.50
38239;DHT22;24035;48.900;9.188;2023-07-31T13:17:48;26.80;5.20
38239;DHT22;24035;48.900;9.188;2023-07-31T13:20:13;26.70;11.30
38239;DHT22;24035;48.900;9.188;2023-07-31T13:22:39;26.70;12.40
38239;DHT22;24035;48.900;9.188;2023-07-31T13:25:06;26.40;12.70
38239;DHT22;24035;48.900;9.188;2023-07-31T13:27:31;26.30;11.40
38239;DHT22;24035;48.900;9.188;2023-07-31T13:29:57;26.50;12.20
38239;DHT22;24035;48.900;9.188;2023-07-31T13:32:23;26.50;10.20
38239;DHT22;24035;48.900;9.188;2023-07-31T13:34:49;26.80;10.30
38239;DHT22;24035;48.900;9.188;2023-07-31T13:37:15;27.20;13.50
38239;DHT22;24035;48.900;9.188;2023-07-31T13:39:41;27.60;15.40
38239;DHT22;24035;48.900;9.188;2023-07-31T13:42:08;27.80;12.90
38239;DHT22;24035;48.900;9.188;2023-07-31T13:44:38;27.80;13.00
38239;DHT22;24035;48.900;9.188;2023-07-31T13:47:04;27.60;13.00
38239;DHT22;24035;48.900;9.188;2023-07-31T13:49:30;27.20;11.50
38239;DHT22;24035;48.900;9.188;2023-07-31T13:51:56;27.20;14.60
38239;DHT22;24035;48.900;9.188;2023-07-31T13:54:25;27.20;16.40
38239;DHT22;24035;48.900;9.188;2023-07-31T13:56:52;27.10;11.00
38239;DHT22;24035;48.900;9.188;2023-07-31T13:59:18;26.80;9.40
38239;DHT22;24035;48.900;9.188;2023-07-31T14:01:44;26.50;10.80
38239;DHT22;24035;48.900;9.188;2023-07-31T14:04:10;26.40;13.60
38239;DHT22;24035;48.900;9.188;2023-07-31T14:06:36;26.50;12.50
38239;DHT22;24035;48.900;9.188;2023-07-31T14:09:02;26.60;15.50
38239;DHT22;24035;48.900;9.188;2023-07-31T14:11:28;26.80;10.90
38239;DHT22;24035;48.900;9.188;2023-07-31T14:13:54;26.60;9.80
38239;DHT22;24035;48.900;9.188;2023-07-31T14:16:21;26.50;13.70
38239;DHT22;24035;48.900;9.188;2023-07-31T14:18:47;26.60;13.80
38239;DHT22;24035;48.900;9.188;2023-07-31T14:21:13;26.50;13.90
38239;DHT22;24035;48.900;9.188;2023-07-31T14:23:40;26.70;14.60
38239;DHT22;24035;48.900;9.188;2023-07-31T14:26:05;27.00;14.00
38239;DHT22;24035;48.900;9.188;2023-07-31T14:28:31;26.60;32.90
38239;DHT22;24035;48.900;9.188;2023-07-31T14:30:57;26.80;16.60
38239;DHT22;24035;48.900;9.188;2023-07-31T14:33:23;27.00;14.20
38239;DHT22;24035;48.900;9.188;2023-07-31T14:35:49;27.20;14.60
38239;DHT22;24035;48.900;9.188;2023-07-31T14:38:15;27.00;10.70
38239;DHT22;24035;48.900;9.188;2023-07-31T14:40:41;27.00;11.20
38239;DHT22;24035;48.900;9.188;2023-07-31T14:43:07;26.80;8.50
38239;DHT22;24035;48.900;9.188;2023-07-31T14:45:33;27.00;35.20
38239;DHT22;24035;48.900;9.188;2023-07-31T14:47:58;27.10;12.30
38239;DHT22;24035;48.900;9.188;2023-07-31T14:50:25;27.20;15.60
38239;DHT22;24035;48.900;9.188;2023-07-31T14:52:51;27.50;16.40
38239;DHT22;24035;48.900;9.188;2023-07-31T14:55:17;27.40;11.70
38239;DHT22;24035;48.900;9.188;2023-07-31T14:57:43;27.40;14.00
38239;DHT22;24035;48.900;9.188;2023-07-31T15:00:09;27.50;12.90
38239;DHT22;24035;48.900;9.188;2023-07-31T15:02:37;27.40;17.20
38239;DHT22;24035;48.900;9.188;2023-07-31T15:05:02;27.20;17.70
38239;DHT22;24035;48.900;9.188;2023-07-31T15:07:29;27.20;20.30
38239;DHT22;24035;48.900;9.188;2023-07-31T15:09:54;26.80;16.10
38239;DHT22;24035;48.900;9.188;2023-07-31T15:12:20;26.20;16.10
38239;DHT22;24035;48.900;9.188;2023-07-31T15:14:47;25.50;14.70
38239;DHT22;24035;48.900;9.188;2023-07-31T15:17:13;25.60;22.30
38239;DHT22;24035;48.900;9.188;2023-07-31T15:19:39;26.00;8.40
38239;DHT22;24035;48.900;9.188;2023-07-31T15:22:04;26.10;16.80
38239;DHT22;24035;48.900;9.188;2023-07-31T15:24:30;26.50;14.80
38239;DHT22;24035;48.900;9.188;2023-07-31T15:26:56;26.70;19.50
38239;DHT22;24035;48.900;9.188;2023-07-31T15:29:22;27.20;17.50
38239;DHT22;24035;48.900;9.188;2023-07-31T15:31:48;27.70;18.90
38239;DHT22;24035;48.900;9.188;2023-07-31T15:34:14;28.20;20.90
38239;DHT22;24035;48.900;9.188;2023-07-31T15:36:40;28.50;17.90
38239;DHT22;24035;48.900;9.188;2023-07-31T15:39:06;27.90;15.70
38239;DHT22;24035;48.900;9.188;2023-07-31T15:41:40;27.00;16.40
38239;DHT22;24035;48.900;9.188;2023-07-31T15:44:06;27.10;17.40
38239;DHT22;24035;48.900;9.188;2023-07-31T15:46:32;27.60;14.50